createdAt,value
2023-03-22T00:00:17.476Z,2.90
2023-03-22T00:02:46.558Z,2.30
2023-03-22T00:05:13.656Z,2.27
2023-03-22T00:07:43.763Z,2.20
2023-03-22T00:10:11.575Z,2.70
2023-03-22T00:12:39.573Z,2.40
2023-03-22T00:15:08.285Z,2.60
2023-03-22T00:17:36.695Z,2.60
2023-03-22T00:20:07.380Z,2.63
2023-03-22T00:22:35.353Z,2.63
2023-03-22T00:25:05.509Z,3.27
2023-03-22T00:27:35.504Z,2.83
2023-03-22T00:30:06.757Z,3.13
2023-03-22T00:32:38.856Z,3.27
2023-03-22T00:35:09.532Z,3.47
2023-03-22T00:37:39.013Z,3.10
2023-03-22T00:40:10.877Z,3.13
2023-03-22T00:42:38.847Z,3.73
2023-03-22T00:45:12.454Z,4.27
2023-03-22T00:47:42.571Z,3.80
2023-03-22T00:50:09.992Z,3.53
2023-03-22T00:52:40.463Z,3.80
2023-03-22T00:55:08.107Z,3.50
2023-03-22T00:57:35.082Z,3.70
2023-03-22T01:00:13.970Z,3.90
2023-03-22T01:02:42.747Z,4.43
2023-03-22T01:05:15.900Z,4.00
2023-03-22T01:07:43.653Z,4.90
2023-03-22T01:10:12.788Z,4.43
2023-03-22T01:12:39.779Z,4.13
2023-03-22T01:15:13.075Z,4.37
2023-03-22T01:17:40.450Z,4.67
2023-03-22T01:20:13.608Z,3.90
2023-03-22T01:22:40.986Z,4.60
2023-03-22T01:25:08.452Z,4.67
2023-03-22T01:27:35.757Z,4.60
2023-03-22T01:30:03.035Z,4.30
2023-03-22T01:32:33.361Z,4.63
2023-03-22T01:35:01.539Z,4.70
2023-03-22T01:37:29.994Z,4.70
2023-03-22T01:39:58.117Z,4.77
2023-03-22T01:42:26.423Z,4.47
2023-03-22T01:45:13.148Z,4.03
2023-03-22T01:47:56.330Z,4.40
2023-03-22T01:50:25.942Z,4.67
2023-03-22T01:52:53.594Z,4.43
2023-03-22T01:55:22.947Z,3.87
2023-03-22T01:57:53.219Z,4.27
2023-03-22T02:00:22.498Z,3.73
2023-03-22T02:02:53.250Z,3.37
2023-03-22T02:05:22.378Z,4.00
2023-03-22T02:07:53.179Z,4.47
2023-03-22T02:10:24.429Z,3.90
2023-03-22T02:13:26.177Z,3.60
2023-03-22T02:16:33.065Z,3.63
2023-03-22T02:19:30.720Z,3.97
2023-03-22T02:22:26.070Z,4.10
2023-03-22T02:25:30.467Z,4.20
2023-03-22T02:28:43.769Z,3.97
2023-03-22T02:31:32.958Z,4.80
2023-03-22T02:34:23.895Z,3.23
2023-03-22T02:36:58.067Z,3.20
2023-03-22T02:40:03.628Z,3.67
2023-03-22T02:43:08.999Z,3.40
2023-03-22T02:45:53.484Z,3.63
2023-03-22T02:48:49.438Z,3.43
2023-03-22T02:51:32.787Z,3.00
2023-03-22T02:54:08.479Z,3.10
2023-03-22T02:56:53.072Z,3.10
2023-03-22T02:59:28.524Z,3.10
2023-03-22T03:02:00.386Z,2.90
2023-03-22T03:04:32.233Z,3.93
2023-03-22T03:07:09.502Z,3.07
2023-03-22T03:09:40.628Z,3.27
2023-03-22T03:12:28.284Z,2.80
2023-03-22T03:14:57.471Z,3.37
2023-03-22T03:17:38.294Z,3.30
2023-03-22T03:20:30.182Z,3.13
2023-03-22T03:23:22.230Z,2.57
2023-03-22T03:26:23.122Z,2.77
2023-03-22T03:29:00.347Z,3.07
2023-03-22T03:31:49.081Z,2.87
2023-03-22T03:34:49.698Z,3.17
2023-03-22T03:37:26.443Z,2.70
2023-03-22T03:39:59.039Z,2.70
2023-03-22T03:42:29.125Z,2.87
2023-03-22T03:44:58.696Z,3.80
2023-03-22T03:47:28.641Z,2.47
2023-03-22T03:49:56.035Z,2.23
2023-03-22T03:52:26.272Z,2.87
2023-03-22T03:54:53.528Z,2.30
2023-03-22T03:57:22.474Z,2.17
2023-03-22T03:59:51.495Z,2.33
2023-03-22T04:02:21.677Z,1.93
2023-03-22T04:04:51.856Z,1.80
2023-03-22T04:07:20.167Z,2.00
2023-03-22T04:09:49.224Z,1.87
2023-03-22T04:12:18.186Z,2.50
2023-03-22T04:14:45.392Z,2.10
2023-03-22T04:17:15.625Z,2.00
2023-03-22T04:19:45.847Z,1.83
2023-03-22T04:22:18.576Z,2.20
2023-03-22T04:24:50.522Z,1.87
2023-03-22T04:27:19.619Z,2.00
2023-03-22T04:29:48.622Z,2.10
2023-03-22T04:32:23.066Z,1.77
2023-03-22T04:34:53.335Z,1.83
2023-03-22T04:37:24.697Z,1.90
2023-03-22T04:39:54.136Z,1.73
2023-03-22T04:42:24.390Z,1.43
2023-03-22T04:44:53.365Z,2.47
2023-03-22T04:47:23.387Z,2.00
2023-03-22T04:49:50.295Z,2.50
2023-03-22T04:52:18.557Z,1.67
2023-03-22T04:54:46.598Z,2.17
2023-03-22T04:57:16.730Z,1.90
2023-03-22T04:59:45.982Z,1.93
2023-03-22T05:02:31.449Z,2.20
2023-03-22T05:04:58.575Z,1.97
2023-03-22T05:07:25.784Z,1.93
2023-03-22T05:09:52.679Z,2.20
2023-03-22T05:12:20.696Z,2.23
2023-03-22T05:14:48.885Z,2.40
2023-03-22T05:17:19.039Z,1.73
2023-03-22T05:19:46.076Z,2.10
2023-03-22T05:22:14.174Z,2.13
2023-03-22T05:24:41.259Z,2.17
2023-03-22T05:27:11.479Z,2.33
2023-03-22T05:29:38.425Z,2.60
2023-03-22T05:32:07.412Z,1.67
2023-03-22T05:34:37.256Z,2.57
2023-03-22T05:37:07.383Z,2.27
2023-03-22T05:39:36.767Z,2.00
2023-03-22T05:42:04.059Z,1.93
2023-03-22T05:44:31.227Z,1.63
2023-03-22T05:46:58.269Z,2.00
2023-03-22T05:49:26.934Z,2.10
2023-03-22T05:51:55.146Z,2.17
2023-03-22T05:54:23.152Z,2.20
2023-03-22T05:56:55.666Z,2.10
2023-03-22T05:59:23.809Z,2.07
2023-03-22T06:01:53.946Z,2.07
2023-03-22T06:04:23.987Z,2.40
2023-03-22T06:06:53.968Z,2.37
2023-03-22T06:09:24.144Z,1.90
2023-03-22T06:11:52.153Z,2.00
2023-03-22T06:14:21.243Z,2.80
2023-03-22T06:16:52.220Z,1.87
2023-03-22T06:19:21.411Z,2.00
2023-03-22T06:21:53.114Z,2.20
2023-03-22T06:24:20.200Z,2.77
2023-03-22T06:26:50.647Z,1.93
2023-03-22T06:29:17.736Z,2.27
2023-03-22T06:31:48.003Z,2.10
2023-03-22T06:34:15.034Z,1.90
2023-03-22T06:36:48.145Z,1.57
2023-03-22T06:39:18.206Z,2.43
2023-03-22T06:41:47.486Z,2.10
2023-03-22T06:44:15.616Z,2.40
2023-03-22T06:46:45.694Z,2.10
2023-03-22T06:49:12.697Z,1.93
2023-03-22T06:51:40.767Z,1.73
2023-03-22T06:54:07.791Z,2.00
2023-03-22T06:56:34.746Z,2.40
2023-03-22T06:59:02.974Z,1.93
2023-03-22T07:01:31.117Z,1.70
2023-03-22T07:03:59.271Z,2.30
2023-03-22T07:06:27.730Z,2.03
2023-03-22T07:08:54.764Z,1.50
2023-03-22T07:11:21.928Z,1.87
2023-03-22T07:13:55.381Z,1.90
2023-03-22T07:16:22.918Z,1.97
2023-03-22T07:18:50.488Z,1.87
2023-03-22T07:21:17.538Z,2.10
2023-03-22T07:23:46.573Z,1.80
2023-03-22T07:26:14.653Z,1.90
2023-03-22T07:28:44.677Z,2.23
2023-03-22T07:31:14.510Z,2.37
2023-03-22T07:33:41.737Z,1.73
2023-03-22T07:36:09.814Z,1.93
2023-03-22T07:38:37.567Z,2.33
2023-03-22T07:41:07.608Z,2.07
2023-03-22T07:43:50.829Z,2.30
2023-03-22T07:46:22.060Z,2.23
2023-03-22T07:48:49.732Z,1.50
2023-03-22T07:51:17.135Z,2.53
2023-03-22T07:53:44.354Z,2.73
2023-03-22T07:56:14.656Z,1.93
2023-03-22T07:58:41.762Z,2.00
2023-03-22T08:01:11.938Z,2.07
2023-03-22T08:03:39.715Z,2.83
2023-03-22T08:06:12.917Z,2.00
2023-03-22T08:08:40.643Z,2.67
2023-03-22T08:11:12.535Z,2.47
2023-03-22T08:13:43.089Z,1.80
2023-03-22T08:16:10.114Z,2.40
2023-03-22T08:18:37.190Z,2.40
2023-03-22T08:21:05.775Z,2.50
2023-03-22T08:23:41.537Z,2.63
2023-03-22T08:26:10.441Z,2.70
2023-03-22T08:28:39.674Z,2.13
2023-03-22T08:31:16.249Z,2.27
2023-03-22T08:33:46.448Z,2.57
2023-03-22T08:36:18.072Z,2.10
2023-03-22T08:38:45.483Z,2.27
2023-03-22T08:41:16.320Z,2.43
2023-03-22T08:43:45.595Z,2.33
2023-03-22T08:46:13.805Z,2.10
2023-03-22T08:48:50.574Z,1.70
2023-03-22T08:51:19.910Z,1.97
2023-03-22T08:53:47.899Z,2.30
2023-03-22T08:56:16.994Z,2.43
2023-03-22T08:58:46.850Z,2.03
2023-03-22T09:01:16.980Z,1.97
2023-03-22T09:03:45.094Z,1.90
2023-03-22T09:06:14.085Z,1.77
2023-03-22T09:08:44.267Z,2.23
2023-03-22T09:11:12.682Z,2.73
2023-03-22T09:13:40.873Z,1.83
2023-03-22T09:16:09.142Z,2.40
2023-03-22T09:18:39.469Z,1.60
2023-03-22T09:21:13.128Z,2.30
2023-03-22T09:23:47.773Z,2.33
2023-03-22T09:26:17.895Z,1.90
2023-03-22T09:28:46.844Z,1.70
2023-03-22T09:31:14.032Z,2.43
2023-03-22T09:33:42.012Z,1.70
2023-03-22T09:36:12.178Z,2.07
2023-03-22T09:38:41.417Z,1.90
2023-03-22T09:41:17.441Z,1.80
2023-03-22T09:44:13.677Z,1.90
2023-03-22T09:46:49.201Z,2.03
2023-03-22T09:49:24.600Z,1.90
2023-03-22T09:51:53.766Z,2.07
2023-03-22T09:54:32.951Z,2.10
2023-03-22T09:57:07.347Z,1.80
2023-03-22T09:59:46.723Z,2.13
2023-03-22T10:02:46.737Z,1.80
2023-03-22T10:05:29.647Z,2.40
2023-03-22T10:07:56.516Z,1.77
2023-03-22T10:10:26.817Z,2.03
2023-03-22T10:13:25.978Z,1.80
2023-03-22T10:15:59.244Z,1.80
2023-03-22T10:18:38.259Z,1.80
2023-03-22T10:21:11.148Z,2.53
2023-03-22T10:24:29.619Z,2.37
2023-03-22T10:26:56.621Z,1.77
2023-03-22T10:29:35.871Z,2.10
2023-03-22T10:32:18.541Z,1.70
2023-03-22T10:34:49.534Z,2.17
2023-03-22T10:37:34.426Z,1.93
2023-03-22T10:40:08.418Z,2.13
2023-03-22T10:42:39.544Z,1.83
2023-03-22T10:45:12.375Z,1.93
2023-03-22T10:48:04.080Z,1.80
2023-03-22T10:50:35.497Z,1.73
2023-03-22T10:53:12.883Z,2.30
2023-03-22T10:55:43.113Z,1.93
2023-03-22T10:58:19.320Z,2.20
2023-03-22T11:00:54.164Z,1.83
2023-03-22T11:03:36.480Z,1.40
2023-03-22T11:06:14.178Z,1.63
2023-03-22T11:08:46.589Z,2.50
2023-03-22T11:11:36.766Z,2.10
2023-03-22T11:14:26.908Z,1.80
2023-03-22T11:17:00.146Z,1.43
2023-03-22T11:19:27.403Z,1.80
2023-03-22T11:21:59.236Z,1.93
2023-03-22T11:24:28.585Z,1.63
2023-03-22T11:27:18.377Z,1.63
2023-03-22T11:29:48.560Z,1.63
2023-03-22T11:32:36.944Z,1.90
2023-03-22T11:35:23.142Z,1.80
2023-03-22T11:37:52.611Z,2.43
2023-03-22T11:40:25.769Z,2.70
2023-03-22T11:43:24.933Z,2.43
2023-03-22T11:45:56.973Z,2.20
2023-03-22T11:48:28.031Z,3.00
2023-03-22T11:50:59.730Z,3.10
2023-03-22T11:53:28.912Z,2.50
2023-03-22T11:55:57.907Z,2.70
2023-03-22T11:58:29.008Z,2.10
2023-03-22T12:00:59.725Z,2.17
2023-03-22T12:03:32.023Z,2.10
2023-03-22T12:06:05.269Z,1.93
2023-03-22T12:08:56.485Z,1.70
2023-03-22T12:11:37.902Z,1.27
2023-03-22T12:14:34.376Z,1.47
2023-03-22T12:17:21.895Z,1.60
2023-03-22T12:19:58.279Z,2.03
2023-03-22T12:22:35.403Z,1.60
2023-03-22T12:25:09.428Z,1.70
2023-03-22T12:27:39.766Z,1.43
2023-03-22T12:30:21.649Z,1.67
2023-03-22T12:33:14.644Z,1.80
2023-03-22T12:35:46.802Z,1.67
2023-03-22T12:38:34.062Z,1.60
2023-03-22T12:41:07.364Z,1.80
2023-03-22T12:43:49.693Z,1.67
2023-03-22T12:46:27.875Z,1.80
2023-03-22T12:49:13.296Z,1.90
2023-03-22T12:51:44.149Z,1.83
2023-03-22T12:54:15.717Z,1.77
2023-03-22T12:56:46.650Z,1.77
2023-03-22T12:59:45.733Z,1.77
2023-03-22T13:02:32.079Z,1.80
2023-03-22T13:05:06.968Z,1.90
2023-03-22T13:07:46.839Z,1.90
2023-03-22T13:10:36.838Z,1.90
2023-03-22T13:13:22.017Z,2.13
2023-03-22T13:16:11.064Z,2.30
2023-03-22T13:18:58.457Z,1.90
2023-03-22T13:21:29.977Z,1.80
2023-03-22T13:24:06.503Z,2.10
2023-03-22T13:26:55.546Z,2.23
2023-03-22T13:29:24.697Z,2.03
2023-03-22T13:31:57.625Z,2.20
2023-03-22T13:34:54.290Z,2.10
2023-03-22T13:37:47.569Z,2.27
2023-03-22T13:40:50.271Z,2.30
2023-03-22T13:43:17.130Z,2.83
2023-03-22T13:46:08.173Z,2.50
2023-03-22T13:48:53.855Z,2.40
2023-03-22T13:51:31.930Z,2.63
2023-03-22T13:54:18.330Z,2.83
2023-03-22T13:56:56.596Z,2.53
2023-03-22T13:59:27.957Z,2.73
2023-03-22T14:02:26.254Z,2.80
2023-03-22T14:04:56.214Z,2.60
2023-03-22T14:07:26.285Z,2.27
2023-03-22T14:10:21.368Z,2.40
2023-03-22T14:13:12.064Z,2.40
2023-03-22T14:15:56.175Z,2.83
2023-03-22T14:18:39.758Z,2.60
2023-03-22T14:21:14.012Z,2.47
